Sikuliaq — WDG7520 — position and weather

sailwx.info

Track history (hours):
 
Tides and Currents Weather Stations Pressure Air Temp Water Temp Dewpoint Dewpoint Depression Visibility Wind Speed Wind Dir Waves Ship Positions

Oceanographic research ship Sikuliaq (USA)

Owner: Mackay Communications, Raleigh, NC. More information available from US FCC via Universal Licensing System.

Last reported at 2018-May-20 12:00 UTC. Time now 2018-May-20 13:55 UTC.
Position N 53°54' W 159°48'.

Length 80 m; draft 6.2 m.

Type: Other ship. MMSI: 338417000.

Wind from 070 at 17 knots

Barometer 991.6 mb
Air temperature 4.9 ° C
Dewpoint 3.4 ° C
Water temperature 6.6 ° C

Date/timePositionNaut miles runAvg speedWind from/ knotsBaromVisibWave heightAir tempDewpointWater temp
2018-May-20 12:00N 53°54' W 159°48'7 7.0 070 / 17991.6 4.9 3.4 6.6
2018-May-20 11:00N 54°00' W 159°54'6 6.0 070 / 17992.6 5.8 1.6 7.0
2018-May-20 10:00N 54°06' W 159°54'0 0.0 090 / 17993.4 6.0 3.5 6.9
2018-May-20 09:00N 54°06' W 159°54'4 3.5 130 / 16994.0 5.9 2.6 7.0
2018-May-20 08:00N 54°06' W 160°00'1212.1 130 / 8994.6 5.7 4.4 5.8
2018-May-20 07:00N 54°12' W 160°18'0 0.0 170 / 11994.8 4.6 4.6 6.2
2018-May-20 06:00N 54°12' W 160°18'0 0.0 090 / 11994.8 6.1 6.0 6.1
2018-May-20 05:00N 54°12' W 160°18'0 0.0 070 / 14994.8 6.2 6.2 6.2
2018-May-20 04:00N 54°12' W 160°18'0 0.0 080 / 7995.3 6.5 6.3 6.0
2018-May-20 03:00N 54°12' W 160°18'7 7.0 080 / 12995.8 6.1 6.1 6.2
2018-May-20 02:00N 54°06' W 160°24'1212.2 100 / 9996.3 5.7 5.4 5.9
2018-May-20 01:00N 54°00' W 160°42'4 3.5 110 / 10996.8 6.0 5.7 6.2
2018-May-20 00:00N 54°00' W 160°48'0 0.0 080 / 10997.3 5.9 5.7 6.8
2018-May-19 23:00N 54°00' W 160°48'7 7.0 110 / 9998.1 5.8 5.7 6.7
2018-May-19 22:00N 53°54' W 160°54'4 3.5 090 / 10998.3 5.9 5.8 6.7
2018-May-19 21:00N 53°54' W 160°48'7 7.0 090 / 10998.8 5.6 5.6 6.6
2018-May-19 20:00N 54°00' W 160°54'7 7.0 100 / 10999.0 5.5 5.4 6.4
2018-May-19 19:00N 54°06' W 161°00'1312.5 080 / 11999.2 4.9 4.5 6.3
2018-May-19 18:00N 54°18' W 161°06'7 6.9 070 / 11999.3 4.8 3.8 6.0
2018-May-19 17:00N 54°24' W 161°12'1413.9 060 / 11999.6 4.9 3.5 6.0
2018-May-19 16:00N 54°36' W 161°24'7 6.9 070 / 7999.8 4.9 3.5 6.0
2018-May-19 15:00N 54°42' W 161°30'1413.9 060 / 14999.7 4.9 3.8 5.6
2018-May-19 14:00N 54°54' W 161°42'7 6.9 060 / 111000.2 5.0 3.5 5.8
2018-May-19 13:00N 54°54' W 161°54'9 9.1 060 / 121000.3 4.9 4.1 5.6
2018-May-19 12:00N 55°00' W 162°06'7 6.9 060 / 111000.6 5.1 3.6 5.9
2018-May-19 11:00N 55°00' W 162°18'0 0.0 060 / 131000.6 5.6 2.8 5.5
2018-May-19 10:00N 55°00' W 162°18'3 3.4 060 / 81000.8 5.5 3.2 5.6
2018-May-19 09:00N 55°00' W 162°12'9 9.1 060 / 151001.1 5.3 3.8 5.7
2018-May-19 08:00N 54°54' W 162°00'7 6.9 070 / 161001.1 5.2 4.4 5.6
2018-May-19 07:00N 54°54' W 161°48'7 6.9 070 / 171000.9 5.6 5.3 5.9
2018-May-19 06:00N 54°54' W 161°36'7 6.9 070 / 181000.6 5.3 5.3 5.6
2018-May-19 05:00N 54°54' W 161°24'7 6.9 070 / 111000.8 5.8 5.5 5.7
2018-May-19 04:00N 54°54' W 161°12'9 9.1 070 / 111000.8 5.8 5.4 5.7
2018-May-19 03:00N 55°00' W 161°00'7 6.9 070 / 141001.0 5.8 5.5 5.4
2018-May-19 02:00N 55°00' W 160°48'7 6.9 070 / 111001.2 6.1 6.0 5.7
2018-May-19 01:00N 55°06' W 160°42'7 6.9 070 / 141001.7 6.3 6.0 5.5
2018-May-19 00:00N 55°06' W 160°30'7 6.9 060 / 131002.1 6.0 6.0 5.3
2018-May-18 23:00N 55°12' W 160°24'7 6.9 060 / 211002.4 5.5 5.5 5.4
2018-May-18 22:00N 55°18' W 160°30'0 0.0 080 / 221002.6 6.6 5.5 5.7
2018-May-18 21:00N 55°18' W 160°30'0 0.0 060 / 251002.9 6.1 5.7 5.4
2018-May-18 20:00N 55°18' W 160°30'0 0.0 070 / 191003.9 5.8 5.8 5.3
2018-May-18 19:00N 55°18' W 160°30'0 0.0 070 / 171004.1 5.8 5.8 5.3
2018-May-18 18:00N 55°18' W 160°30'0 0.0 070 / 161004.3 5.8 5.8 5.4
2018-May-18 17:00N 55°18' W 160°30'0 0.0 070 / 141004.4 5.8 5.8 5.4
2018-May-18 16:00N 55°18' W 160°30'0 0.0 070 / 181004.6 5.8 5.8 5.3
2018-May-18 15:00N 55°18' W 160°30'0 0.0 060 / 211004.4 5.7 5.7 5.4
2018-May-18 14:00N 55°18' W 160°30'0 0.0 070 / 211004.9 6.0 5.8 5.5
2018-May-18 13:00N 55°18' W 160°30'0 0.0 070 / 211005.2 6.0 5.8 5.4
2018-May-18 12:00N 55°18' W 160°30'0 0.0 080 / 241005.5 6.2 5.6 5.4
2018-May-18 11:00N 55°18' W 160°30'0 0.0 080 / 221006.1 6.1 5.7 5.4
2018-May-18 10:00N 55°18' W 160°30'0 0.0 080 / 241006.4 6.1 5.6 5.5
2018-May-18 09:00N 55°18' W 160°30'0 0.0 080 / 201006.8 6.3 5.7 5.5
2018-May-18 08:00N 55°18' W 160°30'0 0.0 080 / 231007.0 6.3 5.9 5.5
2018-May-18 07:00N 55°18' W 160°30'0 0.0 080 / 171007.2 6.3 6.0 5.5
2018-May-18 06:00N 55°18' W 160°30'0 0.0 080 / 151007.0 6.3 6.0 5.5
2018-May-18 05:00N 55°18' W 160°30'0 0.0 070 / 181006.9 6.5 6.0 5.5
2018-May-18 04:00N 55°18' W 160°30'0 0.0 070 / 161007.0 6.7 6.0 5.5
2018-May-18 03:00N 55°18' W 160°30'0 0.0 070 / 121007.2 6.7 6.2 5.6
2018-May-18 02:00N 55°18' W 160°30'0 0.0 070 / 171007.3 6.8 6.4 5.6
2018-May-18 01:00N 55°18' W 160°30'0 0.0 070 / 181007.4 6.5 6.5 5.5
2018-May-18 00:00N 55°18' W 160°30'0 0.0 090 / 171007.9 6.6 6.6 5.5
2018-May-17 23:00N 55°18' W 160°30'0 0.0 090 / 161008.1 6.9 6.4 5.6
2018-May-17 22:00N 55°18' W 160°30'0 0.0 080 / 151008.3 7.1 6.4 5.6
2018-May-17 21:00N 55°18' W 160°30'0 0.0 080 / 121008.6 7.1 6.6 5.6
2018-May-17 20:00N 55°18' W 160°30'0 0.0 070 / 171008.6 6.7 6.4 5.3
2018-May-17 19:00N 55°18' W 160°30'0 0.0 100 / 141008.9 6.8 6.0 5.3
2018-May-17 18:00N 55°18' W 160°30'0 0.0 110 / 111009.0 6.8 6.8 5.3
2018-May-17 17:00N 55°18' W 160°30'0 0.0 110 / 111008.9 6.8 6.4 5.3
2018-May-17 16:00N 55°18' W 160°30'0 0.0 060 / 41008.7 6.8 6.2 5.3
2018-May-17 15:00N 55°18' W 160°30'0 0.0 060 / 71008.6 6.5 5.9 5.4
2018-May-17 14:00N 55°18' W 160°30'7 6.9 110 / 121008.6 6.4 6.4 5.4
2018-May-17 13:00N 55°12' W 160°24'0 0.0 080 / 151008.6 5.8 5.2
2018-May-17 12:00N 55°12' W 160°24'0 0.0 060 / 131008.9 5.5 5.2
2018-May-17 11:00N 55°12' W 160°24'6 6.0 050 / 181009.0 5.5 5.2
2018-May-17 10:00N 55°06' W 160°24'6 6.0 060 / 171008.9 5.6 5.2
2018-May-17 09:00N 55°00' W 160°24'6 6.0 060 / 141008.8 6.3 5.7 5.6
2018-May-17 08:00N 54°54' W 160°24'7 6.9 060 / 111009.2 6.0 5.7 6.0
2018-May-17 07:00N 54°48' W 160°30'7 6.9 060 / 121009.4 6.2 5.8 6.0
2018-May-17 06:00N 54°42' W 160°36'0 0.0 050 / 111009.6 5.9 5.9 5.8
2018-May-17 05:00N 54°42' W 160°36'9 9.2 020 / 211009.4 5.7 5.7 5.9
2018-May-17 04:00N 54°48' W 160°48'7 6.9 020 / 281009.6 5.8 5.6 6.1
2018-May-17 03:00N 54°48' W 161°00'7 6.9 020 / 261010.4 5.5 4.8 5.9
2018-May-17 02:00N 54°48' W 161°12'3 3.5 030 / 271011.2 5.8 4.5 6.1
2018-May-17 01:00N 54°48' W 161°18'3 3.5 040 / 241012.0 5.7 3.6 5.8
2018-May-17 00:00N 54°48' W 161°24'7 6.9 040 / 181012.9 5.8 4.2 5.9
2018-May-16 23:00N 54°42' W 161°18'7 6.9 040 / 271012.6 5.7 3.7 6.1
2018-May-16 22:00N 54°36' W 161°12'3 3.5 040 / 271012.4 5.7 3.3 6.0
2018-May-16 21:00N 54°36' W 161°06'7 6.9 040 / 231012.6 5.5 2.2 5.8
2018-May-16 20:00N 54°30' W 161°00'0 0.0 040 / 211012.8 5.6 2.1 5.6
2018-May-16 19:00N 54°30' W 161°00'14 7.0 030 / 211013.2 5.6 1.6 5.7
2018-May-16 17:00N 54°30' W 160°36'7 7.0 040 / 261012.6 5.5 2.0 5.8
2018-May-16 16:00N 54°30' W 160°24'9 9.2 040 / 251012.6 5.1 3.1 5.9
2018-May-16 15:00N 54°36' W 160°12'0 0.0 030 / 221012.8 4.3 3.7 5.8
2018-May-16 14:00N 54°36' W 160°12'9 9.2 030 / 181013.1 5.1 2.9 5.9
2018-May-16 13:00N 54°30' W 160°00'3 3.5 040 / 231013.0 5.3 3.0 5.9
2018-May-16 12:00N 54°30' W 159°54'9 9.2 040 / 231013.0 5.1 3.5 6.0
2018-May-16 11:00N 54°24' W 159°42'7 7.0 040 / 241012.7 5.3 3.2 5.7
2018-May-16 10:00N 54°24' W 159°30'9 9.2 040 / 221012.7 5.5 3.7 5.9
2018-May-16 09:00N 54°18' W 159°18'7 7.0 040 / 231012.8 5.6 3.0 6.2
2018-May-16 08:00N 54°18' W 159°06'9 9.2 050 / 251013.0 5.7 3.6 6.7
2018-May-16 07:00N 54°12' W 158°54'6 6.0 050 / 191013.2 5.7 3.5 6.6
2018-May-16 06:00N 54°18' W 158°54'0 0.0 030 / 121013.1 5.9 2.9 6.7
2018-May-16 05:00N 54°18' W 158°54'7 7.0 040 / 151012.9 6.1 3.1 6.8
2018-May-16 04:00N 54°18' W 158°42'7 6.9 040 / 111013.1 6.3 2.8 6.9
2018-May-16 03:00N 54°24' W 158°36'7 6.9 040 / 161013.1 5.8 2.0 7.0
2018-May-16 02:00N 54°18' W 158°30'4 3.5 040 / 151013.1 5.7 1.9 7.0
2018-May-16 01:00N 54°18' W 158°24'4 3.5 040 / 151013.3 5.6 1.5 7.0
2018-May-16 00:00N 54°18' W 158°30'0 0.0 040 / 141013.7 5.4 1.9 7.2
2018-May-15 23:00N 54°18' W 158°30'0 0.0 040 / 91013.8 5.3 2.3 6.9
2018-May-15 22:00N 54°18' W 158°30'0 0.0 020 / 111014.0 5.0 2.5 6.7
2018-May-15 21:00N 54°18' W 158°30'4 3.5 060 / 71014.2 5.7 2.8 6.6
2018-May-15 20:00N 54°18' W 158°24'0 0.0 040 / 91014.4 4.8 1.7 6.5
2018-May-15 19:00N 54°18' W 158°24'0 0.0 050 / 91014.5 4.8 1.1 6.5
2018-May-15 18:00N 54°18' W 158°24'0 0.0 040 / 81014.6 4.6 0.7 6.5
2018-May-15 17:00N 54°18' W 158°24'6 6.0 040 / 71014.7 4.5 0.2 6.5
2018-May-15 16:00N 54°24' W 158°24'6 6.0 050 / 71014.8 4.5 0.4 6.1
2018-May-15 15:00N 54°30' W 158°24'1212.0 020 / 51014.9 4.3-0.2 5.7
2018-May-15 14:00N 54°42' W 158°24'7 6.9 330 / 31015.0 4.3-0.7 5.8
2018-May-15 13:00N 54°48' W 158°18'0 0.0 260 / 31015.2 4.6-0.4 5.9
2018-May-15 12:00N 54°48' W 158°18'7 6.9 220 / 41015.5 4.8 0.1 5.9
2018-May-15 11:00N 54°42' W 158°12'9 9.2 180 / 21015.9 4.8-0.2 5.9
2018-May-15 10:00N 54°36' W 158°00'7 6.9 290 / 31016.1 4.8 1.1 5.9
2018-May-15 09:00N 54°30' W 157°54'0 0.0 210 / 31016.2 5.1 1.3 6.2
2018-May-15 08:00N 54°30' W 157°54'3 3.5 240 / 31016.4 5.2 1.5 6.2
2018-May-15 07:00N 54°30' W 157°48'7 6.9 220 / 41016.5 5.2 1.7 6.1
2018-May-15 06:00N 54°36' W 157°42'1212.0 230 / 51016.4 5.3 1.8 6.8
2018-May-15 05:00N 54°42' W 157°24'0 0.0 230 / 61016.7 5.4 2.1 6.8
2018-May-15 04:00N 54°42' W 157°24'0 0.0 260 / 81016.9 5.5 1.7 6.7
2018-May-15 03:00N 54°42' W 157°24'7 6.9 240 / 91017.1 5.5 0.8 6.7
2018-May-15 02:00N 54°48' W 157°18'1212.5 250 / 101017.2 5.4 2.1 6.6
2018-May-15 01:00N 55°00' W 157°12'7 6.9 250 / 101017.3 5.3 2.7 6.2
2018-May-15 00:00N 55°06' W 157°06'0 0.0 260 / 81017.4 5.1 2.2 5.7
2018-May-14 23:00N 55°06' W 157°06'9 9.1 260 / 121017.4 5.0 2.7 5.4
2018-May-14 22:00N 55°00' W 156°54'1212.0 250 / 121017.4 5.3 1.8 6.2
2018-May-14 21:00N 54°54' W 156°36'0 0.0 250 / 151017.6 5.4 2.5 6.7
2018-May-14 20:00N 54°54' W 156°36'0 0.0 250 / 131017.4 5.7 3.0 6.6
2018-May-14 19:00N 54°54' W 156°36'0 0.0 240 / 141017.4 5.3 2.6 6.5
2018-May-14 18:00N 54°54' W 156°36'1010.4 260 / 121017.4 5.3 2.4 6.5
2018-May-14 17:00N 54°54' W 156°18'1010.4 250 / 131017.4 5.4 2.5 6.2
2018-May-14 16:00N 54°54' W 156°00'3 3.5 250 / 131017.2 5.3 1.8 6.1
2018-May-14 15:00N 54°54' W 155°54'0 0.0 260 / 131017.1 5.3 2.6 6.3
2018-May-14 14:00N 54°54' W 155°54'0 0.0 260 / 131017.1 5.4 2.3 6.3
2018-May-14 13:00N 54°54' W 155°54'0 0.0 260 / 141017.1 5.6 2.9 6.4
2018-May-14 12:00N 54°54' W 155°54'6 6.0 260 / 171016.7 5.6 2.3 6.4
2018-May-14 11:00N 55°00' W 155°54'7 6.9 270 / 161016.3 5.6 2.8 6.5
2018-May-14 10:00N 55°06' W 155°48'1212.0 260 / 171015.9 5.5 3.2 6.0
2018-May-14 09:00N 55°18' W 155°48'0 0.0 250 / 81015.9 5.5 3.0 6.1
2018-May-14 08:00N 55°18' W 155°48'7 6.9 260 / 41016.0 5.6 2.6 6.1
2018-May-14 07:00N 55°12' W 155°54'7 6.8 250 / 131015.9 5.5 2.7 6.2
2018-May-14 06:00N 55°12' W 156°06'9 9.1 260 / 141015.7 5.6 2.9 6.4
2018-May-14 05:00N 55°06' W 156°18'1010.3 260 / 141015.5 5.5 2.8 6.7
2018-May-14 04:00N 55°06' W 156°36'7 6.9 260 / 131015.6 5.6 2.9 6.3
2018-May-14 03:00N 55°00' W 156°42'0 0.0 250 / 141015.7 5.3 2.5 6.3
2018-May-14 02:00N 55°00' W 156°42'0 0.0 250 / 121015.9 5.4 2.7 6.4
2018-May-14 01:00N 55°00' W 156°42'0 0.0 260 / 141016.1 5.4 2.6 6.2
2018-May-14 00:00N 55°00' W 156°42'0 0.0 260 / 121016.0 5.4 2.9 6.4
2018-May-13 23:00N 55°00' W 156°42'0 0.0 260 / 131015.9 5.2 2.8 5.6
2018-May-13 22:00N 55°00' W 156°42'0 0.0 260 / 121015.8 5.4 2.7 6.2
2018-May-13 21:00N 55°00' W 156°42'0 0.0 280 / 151015.7 5.3 2.5 6.1
2018-May-13 20:00N 55°00' W 156°42'0 0.0 260 / 101015.7 5.4 2.0 6.3
2018-May-13 19:00N 55°00' W 156°42'0 0.0 300 / 21015.7 6.1 2.7 6.2
2018-May-13 18:00N 55°00' W 156°42'6 6.0 330 / 71015.8 5.1 3.2 5.9
2018-May-13 17:00N 55°06' W 156°42'7 6.9 320 / 81015.7 5.0 2.4 5.8
2018-May-13 16:00N 55°00' W 156°36'6 6.0 330 / 91015.6 5.2 3.2 6.1
2018-May-13 15:00N 54°54' W 156°36'7 6.9 310 / 101015.6 5.4 3.3 6.3
2018-May-13 14:00N 55°00' W 156°42'6 6.0 300 / 81015.4 5.2 3.0 6.0
2018-May-13 13:00N 55°06' W 156°42'1212.0 300 / 81015.4 5.3 2.2 5.7
2018-May-13 12:00N 55°18' W 156°42'1212.5 320 / 61015.6 5.2 2.2 5.5
2018-May-13 11:00N 55°30' W 156°36'6 6.0 320 / 41015.9 5.0 2.7 5.7
2018-May-13 10:00N 55°36' W 156°36'3 3.4 120 / 41016.2 4.9 2.6 5.9
2018-May-13 09:00N 55°36' W 156°42'1010.2 090 / 61016.4 5.3 2.5 5.6
2018-May-13 08:00N 55°36' W 157°00'1010.2 100 / 31016.8 5.3 4.0 5.6
2018-May-13 07:00N 55°36' W 157°18'3 3.4 110 / 51017.1 5.3 4.6 5.5
2018-May-13 06:00N 55°36' W 157°24'1212.5 130 / 71016.7 5.2 3.9 5.7
2018-May-13 05:00N 55°24' W 157°30'9 9.1 150 / 41016.7 5.1 3.6 5.7
2018-May-13 04:00N 55°18' W 157°42'7 6.9 170 / 51016.8 5.3 3.3 5.7
2018-May-13 03:00N 55°12' W 157°48'3 3.4 160 / 61017.1 5.5 2.8 5.4
2018-May-13 02:00N 55°12' W 157°54'1010.3 160 / 81017.2 5.3 3.0 5.8
2018-May-13 01:00N 55°12' W 158°12'7 6.8 180 / 121017.2 5.4 3.0 5.8
2018-May-13 00:00N 55°12' W 158°24'7 6.9 180 / 81017.5 5.6 3.1 5.6
2018-May-12 23:00N 55°18' W 158°30'1212.5 190 / 101017.4 5.5 3.4 5.5
2018-May-12 22:00N 55°30' W 158°36'0 0.0 180 / 111017.2 5.3 3.4 5.4
2018-May-12 21:00N 55°30' W 158°36'0 0.0 190 / 121016.9 5.2 2.7 5.4
2018-May-12 20:00N 55°30' W 158°36'9 9.1 180 / 111016.7 5.2 3.0 5.4
2018-May-12 19:00N 55°36' W 158°24'1211.8 180 / 121016.5 5.2 3.4 5.5
2018-May-12 18:00N 55°42' W 158°06'3 3.4 210 / 121016.3 4.8 2.3 5.4
2018-May-12 17:00N 55°42' W 158°00'0 0.0 180 / 101016.1 5.0 3.3 5.4
2018-May-12 16:00N 55°42' W 158°00'7 6.9 180 / 131015.5 5.1 3.1 5.4
2018-May-12 15:00N 55°48' W 157°54'9 9.0 170 / 121015.1 5.0 2.6 5.5
2018-May-12 14:00N 55°54' W 157°42'1615.7 220 / 111014.9 3.8 2.0 4.8
2018-May-12 13:00N 56°06' W 157°24'3 3.3 160 / 111014.5 5.0 3.7 4.9
2018-May-12 12:00N 56°06' W 157°18'0 0.0 190 / 131014.3 5.0 2.0 4.9
2018-May-12 11:00N 56°06' W 157°18'1211.7 180 / 91013.9 4.8 3.0 4.8
2018-May-12 10:00N 56°12' W 157°00'1211.7 190 / 211013.5 5.3 4.1 5.2
2018-May-12 09:00N 56°18' W 156°42'1211.7 180 / 181013.3 5.5 4.0 5.0
2018-May-12 08:00N 56°12' W 156°24'1010.0 170 / 151013.4 5.4 4.2 5.2
2018-May-12 07:00N 56°12' W 156°06'3 3.3 180 / 171012.8 5.5 4.5 5.4
2018-May-12 06:00N 56°12' W 156°00'6 6.0 190 / 171012.5 5.5 4.2 5.4
2018-May-12 05:00N 56°18' W 156°00'1212.5 180 / 151011.3 5.5 4.6 5.4
2018-May-12 04:00N 56°30' W 156°06'6 6.0 170 / 141010.8 5.4 4.2 5.1
2018-May-12 03:00N 56°36' W 156°06'6 6.0 180 / 141010.4 5.3 3.4 4.9
2018-May-12 02:00N 56°42' W 156°06'0 0.0 170 / 151009.8 5.4 4.2 5.4
2018-May-12 01:00N 56°42' W 156°06'0 0.0 170 / 161009.2 5.4 3.7 5.4
2018-May-12 00:00N 56°42' W 156°06'10 9.9 170 / 211007.9 5.6 3.3 5.5
2018-May-11 23:00N 56°42' W 155°48'1211.6 170 / 221007.6 5.6 3.7 5.5
2018-May-11 22:00N 56°48' W 155°30'7 6.6 170 / 211007.1 5.3 3.3 5.5
2018-May-11 21:00N 56°48' W 155°18'0 0.0 170 / 221007.0 5.5 3.3 5.1
2018-May-11 20:00N 56°48' W 155°18'6 6.0 170 / 231006.2 4.4 2.8 5.1
2018-May-11 19:00N 56°54' W 155°18'7 6.8 170 / 181005.3 5.5 3.0 5.4
2018-May-11 18:00N 57°00' W 155°12'1212.4 170 / 161004.5 5.4 3.2 5.5
2018-May-11 17:00N 57°12' W 155°06'7 6.8 170 / 201003.1 5.1 3.2 5.4
2018-May-11 16:00N 57°18' W 155°00'7 6.8 180 / 221002.4 5.2 2.6 5.4
2018-May-11 15:00N 57°24' W 154°54'6 6.0 170 / 281000.5 5.7 1.7 5.5
2018-May-11 14:00N 57°30' W 154°54'0 0.0 180 / 25999.8 5.4 1.9 5.4
2018-May-11 13:00N 57°30' W 154°54'7 6.8 190 / 25998.9 5.1 1.9 5.4
2018-May-11 12:00N 57°36' W 154°48'6 6.4 190 / 23997.7 5.5 2.3 5.5
2018-May-11 11:00N 57°36' W 154°36'1111.3 200 / 23996.6 5.6 1.3 5.5
2018-May-11 10:00N 57°42' W 154°18'10 9.6 200 / 15995.5 5.7 1.3 5.5
2018-May-11 09:00N 57°42' W 154°00'3 3.2 210 / 18994.5 5.6 1.4 5.4
2018-May-11 08:00N 57°42' W 153°54'0 0.0 170 / 8993.8 5.3 1.7 5.8
2018-May-11 07:00N 57°42' W 153°54'0 0.0 190 / 14992.9 5.6 1.2 5.7
2018-May-11 06:00N 57°42' W 153°54'0 0.0 200 / 6992.3 5.6 2.4 5.8
2018-May-11 05:00N 57°42' W 153°54'0 0.0 100 / 11992.0 5.9 2.8 5.8
2018-May-11 04:00N 57°42' W 153°54'0 0.0 110 / 14992.0 6.4 2.9 5.7
2018-May-11 03:00N 57°42' W 153°54'0 0.0 100 / 18991.3 6.9 3.2 5.7
2018-May-11 02:00N 57°42' W 153°54'0 0.0 110 / 22990.8 7.8 2.6 5.9
2018-May-11 01:00N 57°42' W 153°54'0 0.0 100 / 23990.6 8.5 2.9 5.6
2018-May-11 00:00N 57°42' W 153°54'0 0.0 080 / 14990.2 8.8 2.6 5.7
2018-May-10 23:00N 57°42' W 153°54'0 0.0 110 / 12990.1 10.3 1.8 5.6
2018-May-10 22:00N 57°42' W 153°54'3 3.2 090 / 24988.9 9.3 2.9 5.7
2018-May-10 21:00N 57°42' W 154°00'0 0.0 110 / 30987.8 9.6 3.2 5.8
2018-May-10 20:00N 57°42' W 154°00'0 0.0 150 / 19988.1 8.1 3.2 5.8
2018-May-10 19:00N 57°42' W 154°00'0 0.0 100 / 14988.9 7.1 1.5 5.7
2018-May-10 18:00N 57°42' W 154°00'0 0.0 090 / 26989.7 5.9 1.3 5.6
2018-May-10 17:00N 57°42' W 154°00'1413.6 050 / 37989.4 4.7 1.4 5.9
2018-May-10 16:00N 57°54' W 154°12'0 0.0 050 / 39991.8 4.4 2.3 5.6
2018-May-10 15:00N 57°54' W 154°12'9 8.7 070 / 33993.9 5.1 1.7 5.5
2018-May-10 14:00N 58°00' W 154°00'9 8.7 070 / 28995.9 4.9 2.6 5.6
2018-May-10 13:00N 58°06' W 153°48'1413.6 070 / 24998.1 5.5 1.2 5.6
2018-May-10 12:00N 58°18' W 153°36'   080 / 21999.5 5.2 2.1 5.8
Track history (hours):
 
Tides and Currents Weather Stations Pressure Air Temp Water Temp Dewpoint Dewpoint Depression Visibility Wind Speed Wind Dir Waves Ship Positions

Oceanographic research ship Sikuliaq (USA)

Owner: Mackay Communications, Raleigh, NC. More information available from US FCC via Universal Licensing System.

Last reported at 2018-May-20 12:00 UTC. Time now 2018-May-20 13:55 UTC.
Position N 53°54' W 159°48'.

Length 80 m; draft 6.2 m.

Type: Other ship. MMSI: 338417000.

Wind from 070 at 17 knots

Barometer 991.6 mb
Air temperature 4.9 ° C
Dewpoint 3.4 ° C
Water temperature 6.6 ° C

Date/timePositionNaut miles runAvg speedWind from/ knotsBaromVisibWave heightAir tempDewpointWater temp
2018-May-20 12:00N 53°54' W 159°48'7 7.0 070 / 17991.6 4.9 3.4 6.6
2018-May-20 11:00N 54°00' W 159°54'6 6.0 070 / 17992.6 5.8 1.6 7.0
2018-May-20 10:00N 54°06' W 159°54'0 0.0 090 / 17993.4 6.0 3.5 6.9
2018-May-20 09:00N 54°06' W 159°54'4 3.5 130 / 16994.0 5.9 2.6 7.0
2018-May-20 08:00N 54°06' W 160°00'1212.1 130 / 8994.6 5.7 4.4 5.8
2018-May-20 07:00N 54°12' W 160°18'0 0.0 170 / 11994.8 4.6 4.6 6.2
2018-May-20 06:00N 54°12' W 160°18'0 0.0 090 / 11994.8 6.1 6.0 6.1
2018-May-20 05:00N 54°12' W 160°18'0 0.0 070 / 14994.8 6.2 6.2 6.2
2018-May-20 04:00N 54°12' W 160°18'0 0.0 080 / 7995.3 6.5 6.3 6.0
2018-May-20 03:00N 54°12' W 160°18'7 7.0 080 / 12995.8 6.1 6.1 6.2
2018-May-20 02:00N 54°06' W 160°24'1212.2 100 / 9996.3 5.7 5.4 5.9
2018-May-20 01:00N 54°00' W 160°42'4 3.5 110 / 10996.8 6.0 5.7 6.2
2018-May-20 00:00N 54°00' W 160°48'0 0.0 080 / 10997.3 5.9 5.7 6.8
2018-May-19 23:00N 54°00' W 160°48'7 7.0 110 / 9998.1 5.8 5.7 6.7
2018-May-19 22:00N 53°54' W 160°54'4 3.5 090 / 10998.3 5.9 5.8 6.7
2018-May-19 21:00N 53°54' W 160°48'7 7.0 090 / 10998.8 5.6 5.6 6.6
2018-May-19 20:00N 54°00' W 160°54'7 7.0 100 / 10999.0 5.5 5.4 6.4
2018-May-19 19:00N 54°06' W 161°00'1312.5 080 / 11999.2 4.9 4.5 6.3
2018-May-19 18:00N 54°18' W 161°06'7 6.9 070 / 11999.3 4.8 3.8 6.0
2018-May-19 17:00N 54°24' W 161°12'1413.9 060 / 11999.6 4.9 3.5 6.0
2018-May-19 16:00N 54°36' W 161°24'7 6.9 070 / 7999.8 4.9 3.5 6.0
2018-May-19 15:00N 54°42' W 161°30'1413.9 060 / 14999.7 4.9 3.8 5.6
2018-May-19 14:00N 54°54' W 161°42'7 6.9 060 / 111000.2 5.0 3.5 5.8
2018-May-19 13:00N 54°54' W 161°54'9 9.1 060 / 121000.3 4.9 4.1 5.6
2018-May-19 12:00N 55°00' W 162°06'7 6.9 060 / 111000.6 5.1 3.6 5.9
2018-May-19 11:00N 55°00' W 162°18'0 0.0 060 / 131000.6 5.6 2.8 5.5
2018-May-19 10:00N 55°00' W 162°18'3 3.4 060 / 81000.8 5.5 3.2 5.6
2018-May-19 09:00N 55°00' W 162°12'9 9.1 060 / 151001.1 5.3 3.8 5.7
2018-May-19 08:00N 54°54' W 162°00'7 6.9 070 / 161001.1 5.2 4.4 5.6
2018-May-19 07:00N 54°54' W 161°48'7 6.9 070 / 171000.9 5.6 5.3 5.9
2018-May-19 06:00N 54°54' W 161°36'7 6.9 070 / 181000.6 5.3 5.3 5.6
2018-May-19 05:00N 54°54' W 161°24'7 6.9 070 / 111000.8 5.8 5.5 5.7
2018-May-19 04:00N 54°54' W 161°12'9 9.1 070 / 111000.8 5.8 5.4 5.7
2018-May-19 03:00N 55°00' W 161°00'7 6.9 070 / 141001.0 5.8 5.5 5.4
2018-May-19 02:00N 55°00' W 160°48'7 6.9 070 / 111001.2 6.1 6.0 5.7
2018-May-19 01:00N 55°06' W 160°42'7 6.9 070 / 141001.7 6.3 6.0 5.5
2018-May-19 00:00N 55°06' W 160°30'7 6.9 060 / 131002.1 6.0 6.0 5.3
2018-May-18 23:00N 55°12' W 160°24'7 6.9 060 / 211002.4 5.5 5.5 5.4
2018-May-18 22:00N 55°18' W 160°30'0 0.0 080 / 221002.6 6.6 5.5 5.7
2018-May-18 21:00N 55°18' W 160°30'0 0.0 060 / 251002.9 6.1 5.7 5.4
2018-May-18 20:00N 55°18' W 160°30'0 0.0 070 / 191003.9 5.8 5.8 5.3
2018-May-18 19:00N 55°18' W 160°30'0 0.0 070 / 171004.1 5.8 5.8 5.3
2018-May-18 18:00N 55°18' W 160°30'0 0.0 070 / 161004.3 5.8 5.8 5.4
2018-May-18 17:00N 55°18' W 160°30'0 0.0 070 / 141004.4 5.8 5.8 5.4
2018-May-18 16:00N 55°18' W 160°30'0 0.0 070 / 181004.6 5.8 5.8 5.3
2018-May-18 15:00N 55°18' W 160°30'0 0.0 060 / 211004.4 5.7 5.7 5.4
2018-May-18 14:00N 55°18' W 160°30'0 0.0 070 / 211004.9 6.0 5.8 5.5
2018-May-18 13:00N 55°18' W 160°30'0 0.0 070 / 211005.2 6.0 5.8 5.4
2018-May-18 12:00N 55°18' W 160°30'0 0.0 080 / 241005.5 6.2 5.6 5.4
2018-May-18 11:00N 55°18' W 160°30'0 0.0 080 / 221006.1 6.1 5.7 5.4
2018-May-18 10:00N 55°18' W 160°30'0 0.0 080 / 241006.4 6.1 5.6 5.5
2018-May-18 09:00N 55°18' W 160°30'0 0.0 080 / 201006.8 6.3 5.7 5.5
2018-May-18 08:00N 55°18' W 160°30'0 0.0 080 / 231007.0 6.3 5.9 5.5
2018-May-18 07:00N 55°18' W 160°30'0 0.0 080 / 171007.2 6.3 6.0 5.5
2018-May-18 06:00N 55°18' W 160°30'0 0.0 080 / 151007.0 6.3 6.0 5.5
2018-May-18 05:00N 55°18' W 160°30'0 0.0 070 / 181006.9 6.5 6.0 5.5
2018-May-18 04:00N 55°18' W 160°30'0 0.0 070 / 161007.0 6.7 6.0 5.5
2018-May-18 03:00N 55°18' W 160°30'0 0.0 070 / 121007.2 6.7 6.2 5.6
2018-May-18 02:00N 55°18' W 160°30'0 0.0 070 / 171007.3 6.8 6.4 5.6
2018-May-18 01:00N 55°18' W 160°30'0 0.0 070 / 181007.4 6.5 6.5 5.5
2018-May-18 00:00N 55°18' W 160°30'0 0.0 090 / 171007.9 6.6 6.6 5.5
2018-May-17 23:00N 55°18' W 160°30'0 0.0 090 / 161008.1 6.9 6.4 5.6
2018-May-17 22:00N 55°18' W 160°30'0 0.0 080 / 151008.3 7.1 6.4 5.6
2018-May-17 21:00N 55°18' W 160°30'0 0.0 080 / 121008.6 7.1 6.6 5.6
2018-May-17 20:00N 55°18' W 160°30'0 0.0 070 / 171008.6 6.7 6.4 5.3
2018-May-17 19:00N 55°18' W 160°30'0 0.0 100 / 141008.9 6.8 6.0 5.3
2018-May-17 18:00N 55°18' W 160°30'0 0.0 110 / 111009.0 6.8 6.8 5.3
2018-May-17 17:00N 55°18' W 160°30'0 0.0 110 / 111008.9 6.8 6.4 5.3
2018-May-17 16:00N 55°18' W 160°30'0 0.0 060 / 41008.7 6.8 6.2 5.3
2018-May-17 15:00N 55°18' W 160°30'0 0.0 060 / 71008.6 6.5 5.9 5.4
2018-May-17 14:00N 55°18' W 160°30'7 6.9 110 / 121008.6 6.4 6.4 5.4
2018-May-17 13:00N 55°12' W 160°24'0 0.0 080 / 151008.6 5.8 5.2
2018-May-17 12:00N 55°12' W 160°24'0 0.0 060 / 131008.9 5.5 5.2
2018-May-17 11:00N 55°12' W 160°24'6 6.0 050 / 181009.0 5.5 5.2
2018-May-17 10:00N 55°06' W 160°24'6 6.0 060 / 171008.9 5.6 5.2
2018-May-17 09:00N 55°00' W 160°24'6 6.0 060 / 141008.8 6.3 5.7 5.6
2018-May-17 08:00N 54°54' W 160°24'7 6.9 060 / 111009.2 6.0 5.7 6.0
2018-May-17 07:00N 54°48' W 160°30'7 6.9 060 / 121009.4 6.2 5.8 6.0
2018-May-17 06:00N 54°42' W 160°36'0 0.0 050 / 111009.6 5.9 5.9 5.8
2018-May-17 05:00N 54°42' W 160°36'9 9.2 020 / 211009.4 5.7 5.7 5.9
2018-May-17 04:00N 54°48' W 160°48'7 6.9 020 / 281009.6 5.8 5.6 6.1
2018-May-17 03:00N 54°48' W 161°00'7 6.9 020 / 261010.4 5.5 4.8 5.9
2018-May-17 02:00N 54°48' W 161°12'3 3.5 030 / 271011.2 5.8 4.5 6.1
2018-May-17 01:00N 54°48' W 161°18'3 3.5 040 / 241012.0 5.7 3.6 5.8
2018-May-17 00:00N 54°48' W 161°24'7 6.9 040 / 181012.9 5.8 4.2 5.9
2018-May-16 23:00N 54°42' W 161°18'7 6.9 040 / 271012.6 5.7 3.7 6.1
2018-May-16 22:00N 54°36' W 161°12'3 3.5 040 / 271012.4 5.7 3.3 6.0
2018-May-16 21:00N 54°36' W 161°06'7 6.9 040 / 231012.6 5.5 2.2 5.8
2018-May-16 20:00N 54°30' W 161°00'0 0.0 040 / 211012.8 5.6 2.1 5.6
2018-May-16 19:00N 54°30' W 161°00'14 7.0 030 / 211013.2 5.6 1.6 5.7
2018-May-16 17:00N 54°30' W 160°36'7 7.0 040 / 261012.6 5.5 2.0 5.8
2018-May-16 16:00N 54°30' W 160°24'9 9.2 040 / 251012.6 5.1 3.1 5.9
2018-May-16 15:00N 54°36' W 160°12'0 0.0 030 / 221012.8 4.3 3.7 5.8
2018-May-16 14:00N 54°36' W 160°12'9 9.2 030 / 181013.1 5.1 2.9 5.9
2018-May-16 13:00N 54°30' W 160°00'3 3.5 040 / 231013.0 5.3 3.0 5.9
2018-May-16 12:00N 54°30' W 159°54'9 9.2 040 / 231013.0 5.1 3.5 6.0
2018-May-16 11:00N 54°24' W 159°42'7 7.0 040 / 241012.7 5.3 3.2 5.7
2018-May-16 10:00N 54°24' W 159°30'9 9.2 040 / 221012.7 5.5 3.7 5.9
2018-May-16 09:00N 54°18' W 159°18'7 7.0 040 / 231012.8 5.6 3.0 6.2
2018-May-16 08:00N 54°18' W 159°06'9 9.2 050 / 251013.0 5.7 3.6 6.7
2018-May-16 07:00N 54°12' W 158°54'6 6.0 050 / 191013.2 5.7 3.5 6.6
2018-May-16 06:00N 54°18' W 158°54'0 0.0 030 / 121013.1 5.9 2.9 6.7
2018-May-16 05:00N 54°18' W 158°54'7 7.0 040 / 151012.9 6.1 3.1 6.8
2018-May-16 04:00N 54°18' W 158°42'7 6.9 040 / 111013.1 6.3 2.8 6.9
2018-May-16 03:00N 54°24' W 158°36'7 6.9 040 / 161013.1 5.8 2.0 7.0
2018-May-16 02:00N 54°18' W 158°30'4 3.5 040 / 151013.1 5.7 1.9 7.0
2018-May-16 01:00N 54°18' W 158°24'4 3.5 040 / 151013.3 5.6 1.5 7.0
2018-May-16 00:00N 54°18' W 158°30'0 0.0 040 / 141013.7 5.4 1.9 7.2
2018-May-15 23:00N 54°18' W 158°30'0 0.0 040 / 91013.8 5.3 2.3 6.9
2018-May-15 22:00N 54°18' W 158°30'0 0.0 020 / 111014.0 5.0 2.5 6.7
2018-May-15 21:00N 54°18' W 158°30'4 3.5 060 / 71014.2 5.7 2.8 6.6
2018-May-15 20:00N 54°18' W 158°24'0 0.0 040 / 91014.4 4.8 1.7 6.5
2018-May-15 19:00N 54°18' W 158°24'0 0.0 050 / 91014.5 4.8 1.1 6.5
2018-May-15 18:00N 54°18' W 158°24'0 0.0 040 / 81014.6 4.6 0.7 6.5
2018-May-15 17:00N 54°18' W 158°24'6 6.0 040 / 71014.7 4.5 0.2 6.5
2018-May-15 16:00N 54°24' W 158°24'6 6.0 050 / 71014.8 4.5 0.4 6.1
2018-May-15 15:00N 54°30' W 158°24'1212.0 020 / 51014.9 4.3-0.2 5.7
2018-May-15 14:00N 54°42' W 158°24'7 6.9 330 / 31015.0 4.3-0.7 5.8
2018-May-15 13:00N 54°48' W 158°18'0 0.0 260 / 31015.2 4.6-0.4 5.9
2018-May-15 12:00N 54°48' W 158°18'7 6.9 220 / 41015.5 4.8 0.1 5.9
2018-May-15 11:00N 54°42' W 158°12'9 9.2 180 / 21015.9 4.8-0.2 5.9
2018-May-15 10:00N 54°36' W 158°00'7 6.9 290 / 31016.1 4.8 1.1 5.9
2018-May-15 09:00N 54°30' W 157°54'0 0.0 210 / 31016.2 5.1 1.3 6.2
2018-May-15 08:00N 54°30' W 157°54'3 3.5 240 / 31016.4 5.2 1.5 6.2
2018-May-15 07:00N 54°30' W 157°48'7 6.9 220 / 41016.5 5.2 1.7 6.1
2018-May-15 06:00N 54°36' W 157°42'1212.0 230 / 51016.4 5.3 1.8 6.8
2018-May-15 05:00N 54°42' W 157°24'0 0.0 230 / 61016.7 5.4 2.1 6.8
2018-May-15 04:00N 54°42' W 157°24'0 0.0 260 / 81016.9 5.5 1.7 6.7
2018-May-15 03:00N 54°42' W 157°24'7 6.9 240 / 91017.1 5.5 0.8 6.7
2018-May-15 02:00N 54°48' W 157°18'1212.5 250 / 101017.2 5.4 2.1 6.6
2018-May-15 01:00N 55°00' W 157°12'7 6.9 250 / 101017.3 5.3 2.7 6.2
2018-May-15 00:00N 55°06' W 157°06'0 0.0 260 / 81017.4 5.1 2.2 5.7
2018-May-14 23:00N 55°06' W 157°06'9 9.1 260 / 121017.4 5.0 2.7 5.4
2018-May-14 22:00N 55°00' W 156°54'1212.0 250 / 121017.4 5.3 1.8 6.2
2018-May-14 21:00N 54°54' W 156°36'0 0.0 250 / 151017.6 5.4 2.5 6.7
2018-May-14 20:00N 54°54' W 156°36'0 0.0 250 / 131017.4 5.7 3.0 6.6
2018-May-14 19:00N 54°54' W 156°36'0 0.0 240 / 141017.4 5.3 2.6 6.5
2018-May-14 18:00N 54°54' W 156°36'1010.4 260 / 121017.4 5.3 2.4 6.5
2018-May-14 17:00N 54°54' W 156°18'1010.4 250 / 131017.4 5.4 2.5 6.2
2018-May-14 16:00N 54°54' W 156°00'3 3.5 250 / 131017.2 5.3 1.8 6.1
2018-May-14 15:00N 54°54' W 155°54'0 0.0 260 / 131017.1 5.3 2.6 6.3
2018-May-14 14:00N 54°54' W 155°54'0 0.0 260 / 131017.1 5.4 2.3 6.3
2018-May-14 13:00N 54°54' W 155°54'0 0.0 260 / 141017.1 5.6 2.9 6.4
2018-May-14 12:00N 54°54' W 155°54'6 6.0 260 / 171016.7 5.6 2.3 6.4
2018-May-14 11:00N 55°00' W 155°54'7 6.9 270 / 161016.3 5.6 2.8 6.5
2018-May-14 10:00N 55°06' W 155°48'1212.0 260 / 171015.9 5.5 3.2 6.0
2018-May-14 09:00N 55°18' W 155°48'0 0.0 250 / 81015.9 5.5 3.0 6.1
2018-May-14 08:00N 55°18' W 155°48'7 6.9 260 / 41016.0 5.6 2.6 6.1
2018-May-14 07:00N 55°12' W 155°54'7 6.8 250 / 131015.9 5.5 2.7 6.2
2018-May-14 06:00N 55°12' W 156°06'9 9.1 260 / 141015.7 5.6 2.9 6.4
2018-May-14 05:00N 55°06' W 156°18'1010.3 260 / 141015.5 5.5 2.8 6.7
2018-May-14 04:00N 55°06' W 156°36'7 6.9 260 / 131015.6 5.6 2.9 6.3
2018-May-14 03:00N 55°00' W 156°42'0 0.0 250 / 141015.7 5.3 2.5 6.3
2018-May-14 02:00N 55°00' W 156°42'0 0.0 250 / 121015.9 5.4 2.7 6.4
2018-May-14 01:00N 55°00' W 156°42'0 0.0 260 / 141016.1 5.4 2.6 6.2
2018-May-14 00:00N 55°00' W 156°42'0 0.0 260 / 121016.0 5.4 2.9 6.4
2018-May-13 23:00N 55°00' W 156°42'0 0.0 260 / 131015.9 5.2 2.8 5.6
2018-May-13 22:00N 55°00' W 156°42'0 0.0 260 / 121015.8 5.4 2.7 6.2
2018-May-13 21:00N 55°00' W 156°42'0 0.0 280 / 151015.7 5.3 2.5 6.1
2018-May-13 20:00N 55°00' W 156°42'0 0.0 260 / 101015.7 5.4 2.0 6.3
2018-May-13 19:00N 55°00' W 156°42'0 0.0 300 / 21015.7 6.1 2.7 6.2
2018-May-13 18:00N 55°00' W 156°42'6 6.0 330 / 71015.8 5.1 3.2 5.9
2018-May-13 17:00N 55°06' W 156°42'7 6.9 320 / 81015.7 5.0 2.4 5.8
2018-May-13 16:00N 55°00' W 156°36'6 6.0 330 / 91015.6 5.2 3.2 6.1
2018-May-13 15:00N 54°54' W 156°36'7 6.9 310 / 101015.6 5.4 3.3 6.3
2018-May-13 14:00N 55°00' W 156°42'6 6.0 300 / 81015.4 5.2 3.0 6.0
2018-May-13 13:00N 55°06' W 156°42'1212.0 300 / 81015.4 5.3 2.2 5.7
2018-May-13 12:00N 55°18' W 156°42'1212.5 320 / 61015.6 5.2 2.2 5.5
2018-May-13 11:00N 55°30' W 156°36'6 6.0 320 / 41015.9 5.0 2.7 5.7
2018-May-13 10:00N 55°36' W 156°36'3 3.4 120 / 41016.2 4.9 2.6 5.9
2018-May-13 09:00N 55°36' W 156°42'1010.2 090 / 61016.4 5.3 2.5 5.6
2018-May-13 08:00N 55°36' W 157°00'1010.2 100 / 31016.8 5.3 4.0 5.6
2018-May-13 07:00N 55°36' W 157°18'3 3.4 110 / 51017.1 5.3 4.6 5.5
2018-May-13 06:00N 55°36' W 157°24'1212.5 130 / 71016.7 5.2 3.9 5.7
2018-May-13 05:00N 55°24' W 157°30'9 9.1 150 / 41016.7 5.1 3.6 5.7
2018-May-13 04:00N 55°18' W 157°42'7 6.9 170 / 51016.8 5.3 3.3 5.7
2018-May-13 03:00N 55°12' W 157°48'3 3.4 160 / 61017.1 5.5 2.8 5.4
2018-May-13 02:00N 55°12' W 157°54'1010.3 160 / 81017.2 5.3 3.0 5.8
2018-May-13 01:00N 55°12' W 158°12'7 6.8 180 / 121017.2 5.4 3.0 5.8
2018-May-13 00:00N 55°12' W 158°24'7 6.9 180 / 81017.5 5.6 3.1 5.6
2018-May-12 23:00N 55°18' W 158°30'1212.5 190 / 101017.4 5.5 3.4 5.5
2018-May-12 22:00N 55°30' W 158°36'0 0.0 180 / 111017.2 5.3 3.4 5.4
2018-May-12 21:00N 55°30' W 158°36'0 0.0 190 / 121016.9 5.2 2.7 5.4
2018-May-12 20:00N 55°30' W 158°36'9 9.1 180 / 111016.7 5.2 3.0 5.4
2018-May-12 19:00N 55°36' W 158°24'1211.8 180 / 121016.5 5.2 3.4 5.5
2018-May-12 18:00N 55°42' W 158°06'3 3.4 210 / 121016.3 4.8 2.3 5.4
2018-May-12 17:00N 55°42' W 158°00'0 0.0 180 / 101016.1 5.0 3.3 5.4
2018-May-12 16:00N 55°42' W 158°00'7 6.9 180 / 131015.5 5.1 3.1 5.4
2018-May-12 15:00N 55°48' W 157°54'9 9.0 170 / 121015.1 5.0 2.6 5.5
2018-May-12 14:00N 55°54' W 157°42'1615.7 220 / 111014.9 3.8 2.0 4.8
2018-May-12 13:00N 56°06' W 157°24'3 3.3 160 / 111014.5 5.0 3.7 4.9
2018-May-12 12:00N 56°06' W 157°18'0 0.0 190 / 131014.3 5.0 2.0 4.9
2018-May-12 11:00N 56°06' W 157°18'1211.7 180 / 91013.9 4.8 3.0 4.8
2018-May-12 10:00N 56°12' W 157°00'1211.7 190 / 211013.5 5.3 4.1 5.2
2018-May-12 09:00N 56°18' W 156°42'1211.7 180 / 181013.3 5.5 4.0 5.0
2018-May-12 08:00N 56°12' W 156°24'1010.0 170 / 151013.4 5.4 4.2 5.2
2018-May-12 07:00N 56°12' W 156°06'3 3.3 180 / 171012.8 5.5 4.5 5.4
2018-May-12 06:00N 56°12' W 156°00'6 6.0 190 / 171012.5 5.5 4.2 5.4
2018-May-12 05:00N 56°18' W 156°00'1212.5 180 / 151011.3 5.5 4.6 5.4
2018-May-12 04:00N 56°30' W 156°06'6 6.0 170 / 141010.8 5.4 4.2 5.1
2018-May-12 03:00N 56°36' W 156°06'6 6.0 180 / 141010.4 5.3 3.4 4.9
2018-May-12 02:00N 56°42' W 156°06'0 0.0 170 / 151009.8 5.4 4.2 5.4
2018-May-12 01:00N 56°42' W 156°06'0 0.0 170 / 161009.2 5.4 3.7 5.4
2018-May-12 00:00N 56°42' W 156°06'10 9.9 170 / 211007.9 5.6 3.3 5.5
2018-May-11 23:00N 56°42' W 155°48'1211.6 170 / 221007.6 5.6 3.7 5.5
2018-May-11 22:00N 56°48' W 155°30'7 6.6 170 / 211007.1 5.3 3.3 5.5
2018-May-11 21:00N 56°48' W 155°18'0 0.0 170 / 221007.0 5.5 3.3 5.1
2018-May-11 20:00N 56°48' W 155°18'6 6.0 170 / 231006.2 4.4 2.8 5.1
2018-May-11 19:00N 56°54' W 155°18'7 6.8 170 / 181005.3 5.5 3.0 5.4
2018-May-11 18:00N 57°00' W 155°12'1212.4 170 / 161004.5 5.4 3.2 5.5
2018-May-11 17:00N 57°12' W 155°06'7 6.8 170 / 201003.1 5.1 3.2 5.4
2018-May-11 16:00N 57°18' W 155°00'7 6.8 180 / 221002.4 5.2 2.6 5.4
2018-May-11 15:00N 57°24' W 154°54'6 6.0 170 / 281000.5 5.7 1.7 5.5
2018-May-11 14:00N 57°30' W 154°54'0 0.0 180 / 25999.8 5.4 1.9 5.4
2018-May-11 13:00N 57°30' W 154°54'7 6.8 190 / 25998.9 5.1 1.9 5.4
2018-May-11 12:00N 57°36' W 154°48'6 6.4 190 / 23997.7 5.5 2.3 5.5
2018-May-11 11:00N 57°36' W 154°36'1111.3 200 / 23996.6 5.6 1.3 5.5
2018-May-11 10:00N 57°42' W 154°18'10 9.6 200 / 15995.5 5.7 1.3 5.5
2018-May-11 09:00N 57°42' W 154°00'3 3.2 210 / 18994.5 5.6 1.4 5.4
2018-May-11 08:00N 57°42' W 153°54'0 0.0 170 / 8993.8 5.3 1.7 5.8
2018-May-11 07:00N 57°42' W 153°54'0 0.0 190 / 14992.9 5.6 1.2 5.7
2018-May-11 06:00N 57°42' W 153°54'0 0.0 200 / 6992.3 5.6 2.4 5.8
2018-May-11 05:00N 57°42' W 153°54'0 0.0 100 / 11992.0 5.9 2.8 5.8
2018-May-11 04:00N 57°42' W 153°54'0 0.0 110 / 14992.0 6.4 2.9 5.7
2018-May-11 03:00N 57°42' W 153°54'0 0.0 100 / 18991.3 6.9 3.2 5.7
2018-May-11 02:00N 57°42' W 153°54'0 0.0 110 / 22990.8 7.8 2.6 5.9
2018-May-11 01:00N 57°42' W 153°54'0 0.0 100 / 23990.6 8.5 2.9 5.6
2018-May-11 00:00N 57°42' W 153°54'0 0.0 080 / 14990.2 8.8 2.6 5.7
2018-May-10 23:00N 57°42' W 153°54'0 0.0 110 / 12990.1 10.3 1.8 5.6
2018-May-10 22:00N 57°42' W 153°54'3 3.2 090 / 24988.9 9.3 2.9 5.7
2018-May-10 21:00N 57°42' W 154°00'0 0.0 110 / 30987.8 9.6 3.2 5.8
2018-May-10 20:00N 57°42' W 154°00'0 0.0 150 / 19988.1 8.1 3.2 5.8
2018-May-10 19:00N 57°42' W 154°00'0 0.0 100 / 14988.9 7.1 1.5 5.7
2018-May-10 18:00N 57°42' W 154°00'0 0.0 090 / 26989.7 5.9 1.3 5.6
2018-May-10 17:00N 57°42' W 154°00'1413.6 050 / 37989.4 4.7 1.4 5.9
2018-May-10 16:00N 57°54' W 154°12'0 0.0 050 / 39991.8 4.4 2.3 5.6
2018-May-10 15:00N 57°54' W 154°12'9 8.7 070 / 33993.9 5.1 1.7 5.5
2018-May-10 14:00N 58°00' W 154°00'9 8.7 070 / 28995.9 4.9 2.6 5.6
2018-May-10 13:00N 58°06' W 153°48'1413.6 070 / 24998.1 5.5 1.2 5.6
2018-May-10 12:00N 58°18' W 153°36'   080 / 21999.5 5.2 2.1 5.8

Dump ship's entire track history